Aeroporto :
LOGIN :

Iscrizione | Disclaimer

   EN    FR    IT 

 










Sommario :    VFR   VFR Marginale   IFR   IFR Intensivo   IFR Molto Intensivo
Visibilità : 
Base nubi : 
>= 8 km
>= 3000ft
5 / 8 km
1000 / 3000 ft
1500m / 5 km
500 / 1000 ft
800 / 1500m
200 / 500 ft
< 800m
< 200 ft
Simboli :   Temporali  Nebbia  Neve Forte  Precipitazioni Forti  Vento > 20 kt
SIGMETs :   Varie  Temporali  Ghiacco  Turbolenza  Onda orograficha  Ceneri Vulcaniche







- Altitudine del aeroporto : 74 ft
- Codice IATA : LRH
- Carte del aeroporto


LFBH - La Rochelle Ile de Ré

ULTIMO METAR :
  • 261930Z AUTO 05005KT CAVOK 32/18 Q1015 NOSIG

METARs OBSOLETI :
  • 261900Z AUTO 09007KT CAVOK 34/18 Q1015 NOSIG
  • 261830Z AUTO 09008KT CAVOK 36/18 Q1015 NOSIG
  • 261800Z AUTO 10011KT CAVOK 36/17 Q1015 NOSIG
  • 261730Z AUTO 10012KT CAVOK 37/17 Q1014 NOSIG
  • 261700Z AUTO 10012KT CAVOK 37/17 Q1014 NOSIG

TAF TAF LFBH
Valido dal 26 a 18 ore il 27 a 18 ore UTC


261700Z 2618/2718 09010KT CAVOK
ATIS : +33 5 46 00 13 92
Nessun NOTAM noto per questo aeroporto.



MetMap, La meteo Aeronautica in un colpo d'occhio ! - Copyright ORBIFLY Dicembre 2007 - Disclaimer

ORBIFLY MET'MAP TEAM :

Programmazione e sviluppo : Alexandra Zaïnal
Concezione e sviluppo : Baudouin d'Aumeries
Co-Programmazione e sviluppo : Marc-Olivier Méhu
Supporto tecnico e logistico : Manuel Goepfert
Aiuto per la traduzione : Arnaldo La Scala

Contatto : metmap@orbifly.com




FONTI E CREDITI :

   NOAA